Terminal Aerodrome Forecast
Issued by NWS

Home | Current Version | Previous Version | Text Only | Print | Product List | Glossary On
Versions: 1 2 3 4 5 6 7 8 9 10 11 12 13 14 15 16 17 18 19 20 21 22 23 24 25 26 27 28 29 30 31 32
104
FTUS41 KOKX 250233 AAA
TAFTEB
TAF AMD
KTEB 250233Z 2503/2524 18007KT P6SM FEW005 SCT040
      TEMPO 2505/2508 BKN004
     FM250800 17005KT P6SM OVC004
     FM251000 16005KT 2SM BR OVC004
     FM251600 15010KT 6SM BR OVC007
     FM252300 17011KT 6SM -SHRA BR BKN007 PROB30 2523/2524 5SM -TSRA
      BKN007CB=

USA.gov is the U.S. government's official web portal to all federal, state and local government web resources and services.